Terminal Aerodrome Forecast
Issued by NWS

Home | Current Version | Previous Version | Text Only | Print | Product List | Glossary On
Versions: 1 2 3 4 5 6 7 8 9 10 11 12 13 14 15 16 17 18 19 20 21 22 23 24 25 26 27 28 29 30 31 32 33 34 35 36 37 38 39 40 41 42 43 44 45 46
000
FTUS45 KBOU 200913 AAA
TAFAPA
TAF AMD
KAPA 200913Z 2009/2106 21005KT P6SM FEW110
     FM201300 27008KT P6SM FEW110
     FM201600 34010KT P6SM FEW110
     FM201800 03008KT P6SM SCT070
     FM202200 06011KT P6SM SCT070 SCT120 BKN200
     FM210300 12007KT P6SM SCT070 BKN120=

USA.gov is the U.S. government's official web portal to all federal, state and local government web resources and services.